• Join FlightAware (Why Join?)
  • Login
  • US Flag 
10:10PM EDT


 

Airport Tracker/Info


-or-


 

Live Flight TrackerFlight Track Log ✈ UCA3596 ✈ 10-Jan-2014 ✈ KBGM - KIAD

Flight Track Log - Related Links

Times and Time Zones

All times are in EST time to prevent confusion due to time zone crossing. See the UCA3596 flight status page for this flight to view local times or setup timezone preferences in your user account.

Time Position Orientation Groundspeed Altitude Reporting Facility
EST Latitude Longitude Course Direction KTS MPH feet Rate Location/Type
03:07PM 42.1561 -75.9964 219° Southwest 136 157 3,600  Level New York Center
03:08PM 42.1233 -76.0328 219° Southwest 147 169 5,000 1,320 Climbing New York Center
03:09PM 42.0861 -76.0719 218° Southwest 157 181 6,300 1,380 Climbing New York Center
03:10PM 42.0672 -76.1233 244° Southwest 157 181 7,800 1,500 Climbing New York Center
03:11PM 42.0419 -76.1717 235° Southwest 157 181 9,400 1,500 Climbing New York Center
03:12PM 42.0211 -76.2175 239° Southwest 157 181 10,800 1,260 Climbing New York Center
03:13PM 41.9964 -76.2628 234° Southwest 157 181 12,000 1,200 Climbing New York Center
03:14PM 41.9450 -76.2892 201° Southwest 175 201 13,300 1,140 Climbing New York Center
03:15PM 41.8981 -76.3158 203° Southwest 190 219 14,300 900 Climbing New York Center
03:16PM 41.8467 -76.3450 203° Southwest 201 231 15,200 840 Climbing New York Center
03:17PM 41.7933 -76.3711 200° South 201 231 16,000 420 Climbing New York Center
03:18PM 41.7381 -76.3972 199° South 217 250 16,100  Climbing New York Center
03:19PM 41.6675 -76.4356 202° Southwest 244 281 16,100  Level New York Center
03:20PM 41.6056 -76.4664 200° South 249 287 16,100  Level New York Center
03:21PM 41.5414 -76.4997 201° Southwest 249 287 16,100  Level New York Center
03:22PM 41.4839 -76.5281 200° South 249 287 16,100  Level New York Center
03:23PM 41.4133 -76.5636 201° Southwest 249 287 16,100 -60 Level New York Center
03:24PM 41.3514 -76.5969 202° Southwest 249 287 16,000  Descending New York Center
03:25PM 41.2872 -76.6300 201° Southwest 249 287 16,100  Climbing New York Center
03:26PM 41.2297 -76.6581 200° South 249 287 16,100  Level New York Center
03:27PM 41.1675 -76.6942 204° Southwest 249 287 16,100 -60 Level New York Center
03:28PM 41.1056 -76.7244 200° South 249 287 16,000  Descending New York Center
03:29PM 41.0433 -76.7575 202° Southwest 249 287 16,100  Climbing New York Center
03:30PM 40.9792 -76.7906 201° Southwest 249 287 16,000  Descending New York Center
03:31PM 40.9108 -76.8256 201° Southwest 244 281 16,100  Climbing New York Center
03:32PM 40.8467 -76.8556 199° South 239 275 16,100  Level New York Center
03:33PM 40.7825 -76.8883 201° Southwest 245 282 16,100  Level New York Center
03:34PM 40.7147 -76.9094 193° South 250 288 16,100  Level New York Center
03:35PM 40.6489 -76.9311 194° South 250 288 16,100 -60 Level New York Center
03:36PM 40.5833 -76.9497 192° South 244 281 16,000 -60 Descending New York Center
03:37PM 40.5156 -76.9711 193° South 244 281 16,000  Level New York Center
03:38PM 40.4500 -76.9897 192° South 244 281 16,000  Level New York Center
03:39PM 40.3925 -77.0117 196° South 244 281 16,000  Level New York Center
03:40PM 40.3206 -77.0297 191° South 250 288 16,000 -420 Level New York Center
03:43PM 40.1667 -77.0833 195° South 245 282 14,600 -600 Descending Potomac TRACON
03:44PM 40.1000 -77.1000 191° South 242 278 14,000 -600 Descending Potomac TRACON
03:45PM 40.0333 -77.1167 191° South 243 280 13,400 -720 Descending Potomac TRACON
03:46PM 39.9833 -77.1500 207° Southwest 240 276 12,700 -900 Descending Potomac TRACON
03:47PM 39.9167 -77.1833 201° Southwest 242 278 11,800 -900 Descending Potomac TRACON
03:48PM 39.8500 -77.2167 201° Southwest 238 274 10,900 -960 Descending Potomac TRACON
03:49PM 39.7833 -77.2500 201° Southwest 238 274 9,900 -960 Descending Potomac TRACON
03:50PM 39.7333 -77.3000 218° Southwest 233 268 9,000 -840 Descending Potomac TRACON
03:51PM 39.6833 -77.3333 207° Southwest 233 268 8,300 -900 Descending Potomac TRACON
03:52PM 39.6333 -77.3833 218° Southwest 237 273 7,300 -1,020 Descending Potomac TRACON
03:53PM 39.5833 -77.4333 218° Southwest 228 262 6,400 -1,260 Descending Potomac TRACON
03:54PM 39.5167 -77.4333 180° South 234 269 4,900 -1,200 Descending Potomac TRACON
03:55PM 39.4500 -77.4333 180° South 205 236 3,900 -480 Descending Potomac TRACON
03:56PM 39.4000 -77.4333 180° South 213 245 3,900 -120 Level Potomac TRACON
03:57PM 39.3333 -77.4333 180° South 215 247 3,700 -480 Descending Potomac TRACON
03:58PM 39.2833 -77.4333 180° South 209 241 3,000 -360 Descending Potomac TRACON
03:59PM 39.2167 -77.4333 180° South 180 207 3,000  Level Potomac TRACON
04:00PM 39.1833 -77.4333 180° South 174 200 3,000  Level Potomac TRACON
04:01PM 39.1333 -77.4333 180° South 171 197 3,000 -60 Level Potomac TRACON
04:02PM 39.0833 -77.4333 180° South 169 194 2,900 -600 Descending Potomac TRACON
04:03PM 39.0333 -77.4333 180° South 176 203 1,900 -960 Descending Potomac TRACON
04:04PM 39.0000 -77.4333 180° South 158 182 1,100 -900 Descending Potomac TRACON
04:06PM 38.9474 -77.4599 180° South  Level Estimated
04:13PM 38.9474 -77.4599 349° North  Level Estimated
04:14PM 38.9474 -77.4599 349° North  Level Estimated